Aeroporto :
LOGIN :

Iscrizione | Disclaimer

   EN    FR    IT 

 










Sommario :    VFR   VFR Marginale   IFR   IFR Intensivo   IFR Molto Intensivo
Visibilità : 
Base nubi : 
>= 8 km
>= 3000ft
5 / 8 km
1000 / 3000 ft
1500m / 5 km
500 / 1000 ft
800 / 1500m
200 / 500 ft
< 800m
< 200 ft
Simboli :   Temporali  Nebbia  Neve Forte  Precipitazioni Forti  Vento > 20 kt
SIGMETs :   Varie  Temporali  Ghiacco  Turbolenza  Onda orograficha  Ceneri Vulcaniche







- Altitudine del aeroporto : 156 ft
- Codice IATA : LCC


LIBN - Lecce Galatine (military)

ULTIMO METAR :
  • 210455Z 32005KT 7000 FEW010 06/05 Q1024 RMK BKN SCT130 VIS MIN 7000 WIND THR14 32006KT WIND THR32 31005KT WHT

METARs OBSOLETI :
  • 210355Z 33006KT 9999 BKN030 06/05 Q1024 RMK BKN VIS MIN 9999 WIND THR14 33006KT WIND THR32 33006KT BLU
  • 210255Z 33006KT 9999 BKN030 06/05 Q1024 RMK BKN VIS MIN 9999 WIND THR14 33006KT WIND THR32 32006KT BLU
  • 210155Z 34009KT 9999 FEW030 07/06 Q1024 RMK FEW VIS MIN 9999 WIND THR14 33007KT WIND THR32 34007KT BLU

Previsioni scadute.
Nessun NOTAM noto per questo aeroporto.



MetMap, La meteo Aeronautica in un colpo d'occhio ! - Copyright ORBIFLY Dicembre 2007 - Disclaimer

ORBIFLY MET'MAP TEAM :

Programmazione e sviluppo : Alexandra Zaïnal
Concezione e sviluppo : Baudouin d'Aumeries
Co-Programmazione e sviluppo : Marc-Olivier Méhu
Supporto tecnico e logistico : Manuel Goepfert
Aiuto per la traduzione : Arnaldo La Scala

Contatto : metmap@orbifly.com




FONTI E CREDITI :

   NOAA